Time;durP1;ratioP1;P1;durP2;ratioP2;P2;SDS_P1;SDS_P2;PMS_P1;PMS_P2;Temp;Humidity;BMP_temperature;BMP_pressure;BME280_temperature;BME280_humidity;BME280_pressure;Samples;Min_cycle;Max_cycle;Signal;HPM_P1;HPM_P2
2023/03/11 00:01:11;;;;;;;10.60;6.90;;;;;;;12.54;66.18;100093.42;106847;1268;22516;-53
2023/03/11 00:03:39;;;;;;;9.80;6.80;;;;;;;12.54;66.24;100088.73;106851;1268;25328;-52
2023/03/11 00:06:08;;;;;;;8.30;6.30;;;;;;;12.53;66.28;100082.69;106797;1270;25353;-52
2023/03/11 00:08:37;;;;;;;12.00;6.80;;;;;;;12.53;66.47;100082.35;106871;1268;25374;-52
2023/03/11 00:11:08;;;;;;;15.20;7.80;;;;;;;12.54;66.59;100081.08;106830;1274;25429;-52
2023/03/11 00:13:40;;;;;;;8.60;7.10;;;;;;;12.57;66.57;100077.64;106832;1268;25421;-53
2023/03/11 00:16:08;;;;;;;11.60;7.20;;;;;;;12.59;66.69;100071.66;106857;1270;22525;-51
2023/03/11 00:18:38;;;;;;;13.30;7.10;;;;;;;12.61;66.74;100069.66;106725;1259;25362;-53
2023/03/11 00:21:16;;;;;;;12.30;7.00;;;;;;;12.62;66.66;100063.34;106869;1268;25413;-53
2023/03/11 00:23:45;;;;;;;13.60;7.00;;;;;;;12.64;66.66;100055.77;106846;1276;22707;-52
2023/03/11 00:26:14;;;;;;;13.30;7.10;;;;;;;12.66;66.73;100055.35;106847;1269;22539;-52
2023/03/11 00:28:43;;;;;;;12.50;7.30;;;;;;;12.67;66.72;100050.77;106839;1271;26492;-53
2023/03/11 00:31:16;;;;;;;10.70;7.20;;;;;;;12.68;66.67;100044.98;106911;1270;25373;-53
2023/03/11 00:34:05;;;;;;;11.20;7.40;;;;;;;12.67;66.78;100035.48;106119;1270;1003065;-53
2023/03/11 00:36:33;;;;;;;10.10;6.70;;;;;;;12.67;66.81;100030.25;106925;1271;25371;-53
2023/03/11 00:39:05;;;;;;;15.30;6.50;;;;;;;12.68;66.80;100023.42;106856;1268;25372;-53
2023/03/11 00:41:38;;;;;;;10.40;6.70;;;;;;;12.69;66.87;100018.85;106870;1268;25452;-53
2023/03/11 00:44:07;;;;;;;11.10;6.80;;;;;;;12.70;66.89;100005.92;106818;1268;25371;-54
2023/03/11 00:46:35;;;;;;;13.10;7.60;;;;;;;12.70;66.78;99997.58;106853;1269;25454;-52
2023/03/11 00:49:04;;;;;;;14.00;6.80;;;;;;;12.70;66.93;99996.35;106830;1269;26618;-52
2023/03/11 00:51:33;;;;;;;16.40;7.80;;;;;;;12.70;66.99;99995.65;106743;1273;25342;-52
2023/03/11 00:54:03;;;;;;;13.80;7.10;;;;;;;12.73;67.03;99989.97;106859;1268;22761;-52
2023/03/11 00:56:32;;;;;;;13.60;6.70;;;;;;;12.74;67.16;99989.39;106846;1268;25377;-53
2023/03/11 00:59:03;;;;;;;9.80;6.30;;;;;;;12.76;67.31;99987.57;106828;1268;25529;-52
2023/03/11 01:01:32;;;;;;;13.30;6.40;;;;;;;12.79;67.35;99978.92;106843;1270;24365;-53
2023/03/11 01:04:01;;;;;;;11.50;6.70;;;;;;;12.81;67.33;99973.93;106830;1268;25345;-53
2023/03/11 01:06:31;;;;;;;12.00;6.30;;;;;;;12.84;67.16;99975.19;106845;1257;25346;-52
2023/03/11 01:09:12;;;;;;;8.40;5.80;;;;;;;12.87;67.06;99966.37;106895;1269;25466;-52
2023/03/11 01:11:43;;;;;;;;;;;;;;;12.90;67.11;99962.06;106843;1268;25499;-53
2023/03/11 01:14:12;;;;;;;12.50;6.20;;;;;;;12.91;66.97;99955.06;106826;1268;23185;-52
2023/03/11 01:16:40;;;;;;;11.50;6.50;;;;;;;12.91;66.89;99949.83;106747;1269;25470;-53
2023/03/11 01:19:09;;;;;;;10.30;6.00;;;;;;;12.91;66.90;99947.23;106731;1269;22510;-52
2023/03/11 01:21:38;;;;;;;14.40;6.20;;;;;;;12.92;66.88;99941.97;106773;1268;25419;-54
2023/03/11 01:24:08;;;;;;;12.80;6.20;;;;;;;12.93;66.79;99938.95;106788;1269;23342;-53
2023/03/11 01:26:47;;;;;;;15.20;5.80;;;;;;;12.92;66.83;99928.91;106800;1268;25372;-52
2023/03/11 01:29:17;;;;;;;10.60;6.30;;;;;;;12.91;66.87;99925.83;106792;1269;22642;-54
2023/03/11 01:31:46;;;;;;;13.80;5.90;;;;;;;12.90;66.97;99923.25;106949;1268;25345;-52
2023/03/11 01:34:14;;;;;;;10.80;5.50;;;;;;;12.90;67.04;99914.88;106851;1268;25446;-53
2023/03/11 01:36:46;;;;;;;13.20;6.80;;;;;;;12.90;67.12;99909.48;106826;1272;25460;-53
2023/03/11 01:39:15;;;;;;;15.80;6.30;;;;;;;12.89;67.26;99904.66;106902;1268;25348;-53
2023/03/11 01:41:44;;;;;;;12.50;6.00;;;;;;;12.89;67.28;99898.05;106707;1272;25350;-53
2023/03/11 01:44:13;;;;;;;13.40;6.50;;;;;;;12.88;67.43;99901.56;106686;1272;25364;-54
2023/03/11 01:46:51;;;;;;;17.20;6.70;;;;;;;12.89;67.48;99895.10;106660;1273;25581;-53
2023/03/11 01:49:23;;;;;;;13.80;6.30;;;;;;;12.90;67.39;99889.15;106729;1273;25247;-53
2023/03/11 01:51:54;;;;;;;14.90;6.20;;;;;;;12.89;67.53;99880.63;106383;1272;23477;-53
2023/03/11 01:54:29;;;;;;;14.20;6.50;;;;;;;12.89;67.60;99884.83;106666;1272;25377;-54
2023/03/11 01:56:58;;;;;;;16.80;7.00;;;;;;;12.90;67.60;99887.20;106401;1277;22530;-53
2023/03/11 01:59:43;;;;;;;15.60;6.80;;;;;;;12.90;67.67;99882.84;106415;1272;25402;-54
2023/03/11 02:02:35;;;;;;;20.20;7.40;;;;;;;12.92;67.71;99876.51;106660;1276;25401;-53
2023/03/11 02:05:04;;;;;;;19.60;6.90;;;;;;;12.92;67.84;99863.81;106557;1273;22530;-54
2023/03/11 02:07:33;;;;;;;17.20;7.40;;;;;;;12.93;67.91;99858.71;106621;1276;22549;-53
2023/03/11 02:10:11;;;;;;;17.40;6.90;;;;;;;12.93;67.91;99855.58;105906;1272;1003086;-53
2023/03/11 02:12:40;;;;;;;21.60;8.00;;;;;;;12.92;68.01;99845.88;106429;1269;22665;-53
2023/03/11 02:15:09;;;;;;;18.90;8.60;;;;;;;12.92;68.09;99847.45;106757;1270;25327;-54
2023/03/11 02:17:42;;;;;;;22.60;7.80;;;;;;;12.92;68.15;99847.60;106701;1270;25484;-54
2023/03/11 02:20:37;;;;;;;17.40;7.80;;;;;;;12.93;68.07;99841.99;106737;1270;22746;-53
2023/03/11 02:23:09;;;;;;;19.60;7.40;;;;;;;12.93;68.23;99842.86;106632;1269;25331;-53
2023/03/11 02:26:14;;;;;;;25.30;8.60;;;;;;;12.92;68.22;99839.74;106266;1277;25417;-53
2023/03/11 02:28:44;;;;;;;18.90;8.10;;;;;;;12.93;68.30;99834.16;106152;1282;26491;-54
2023/03/11 02:31:12;;;;;;;21.90;9.10;;;;;;;12.93;68.29;99830.33;105942;1278;22534;-53
2023/03/11 02:33:41;;;;;;;15.00;7.50;;;;;;;12.93;68.35;99823.70;106139;1280;25328;-53
2023/03/11 02:36:33;;;;;;;17.20;8.10;;;;;;;12.94;68.40;99825.39;105988;1278;25494;-53
2023/03/11 02:39:03;;;;;;;18.00;7.80;;;;;;;12.94;68.39;99822.60;106327;1276;22579;-53
2023/03/11 02:41:33;;;;;;;19.10;7.70;;;;;;;12.95;68.46;99820.84;106322;1276;25914;-54
2023/03/11 02:44:02;;;;;;;13.50;8.10;;;;;;;12.94;68.64;99822.41;106330;1276;24298;-52
2023/03/11 02:46:30;;;;;;;17.10;8.40;;;;;;;12.96;68.64;99821.30;106336;1276;25380;-52
2023/03/11 02:49:00;;;;;;;14.50;7.00;;;;;;;12.95;68.65;99820.30;106267;1277;25356;-53
2023/03/11 02:51:29;;;;;;;18.60;9.20;;;;;;;12.96;68.78;99816.25;105417;1276;1004200;-53
2023/03/11 02:54:03;;;;;;;14.90;8.00;;;;;;;12.97;68.73;99814.30;106077;1280;25372;-53
2023/03/11 02:56:33;;;;;;;17.20;8.00;;;;;;;12.97;68.68;99805.42;106284;1266;25337;-53
2023/03/11 02:59:04;;;;;;;23.10;9.00;;;;;;;12.97;68.68;99803.34;106238;1277;25321;-53
2023/03/11 03:01:35;;;;;;;18.00;8.10;;;;;;;12.96;68.66;99795.05;106279;1276;25723;-53
2023/03/11 03:04:03;;;;;;;15.80;8.10;;;;;;;12.95;68.75;99801.19;106764;1261;23483;-53
2023/03/11 03:06:36;;;;;;;16.30;8.30;;;;;;;12.94;68.76;99795.98;106748;1269;25376;-54
2023/03/11 03:09:05;;;;;;;17.70;8.40;;;;;;;12.94;68.82;99792.15;106839;1269;25364;-53
2023/03/11 03:11:34;;;;;;;21.40;8.80;;;;;;;12.95;68.91;99784.80;106891;1269;25499;-52
2023/03/11 03:14:02;;;;;;;18.70;10.00;;;;;;;12.96;68.95;99784.58;106902;1255;25460;-52
2023/03/11 03:16:31;;;;;;;18.00;8.70;;;;;;;12.97;69.01;99782.42;106884;1270;25451;-53
2023/03/11 03:19:00;;;;;;;19.20;8.10;;;;;;;12.98;68.99;99783.61;106800;1268;22526;-53
2023/03/11 03:21:33;;;;;;;19.50;8.40;;;;;;;12.99;69.01;99777.30;105922;1273;1002989;-53
2023/03/11 03:24:02;;;;;;;23.30;8.80;;;;;;;13.00;69.01;99771.70;106807;1269;25359;-52
2023/03/11 03:26:40;;;;;;;17.50;8.60;;;;;;;13.01;68.89;99760.84;106734;1269;25512;-53
2023/03/11 03:29:08;;;;;;;19.10;8.20;;;;;;;13.00;68.84;99755.30;106869;1268;22648;-53
2023/03/11 03:31:37;;;;;;;16.70;7.60;;;;;;;12.97;68.98;99754.91;106922;1255;25342;-53
2023/03/11 03:34:07;;;;;;;21.00;8.20;;;;;;;12.97;69.03;99746.23;106801;1273;22532;-53
2023/03/11 03:36:36;;;;;;;23.10;8.60;;;;;;;12.96;68.92;99738.77;106825;1256;22520;-53
2023/03/11 03:39:05;;;;;;;20.40;9.00;;;;;;;12.95;68.80;99734.81;106802;1268;22524;-53
2023/03/11 03:41:36;;;;;;;21.90;9.00;;;;;;;12.95;68.79;99732.92;106893;1269;25379;-54
2023/03/11 03:44:08;;;;;;;16.30;7.20;;;;;;;12.93;68.69;99724.80;106684;1269;23322;-55
2023/03/11 03:46:38;;;;;;;18.00;7.70;;;;;;;12.93;68.64;99722.23;106766;1273;24279;-53
2023/03/11 03:49:08;;;;;;;16.60;8.00;;;;;;;12.91;68.62;99717.96;106788;1268;22485;-53
2023/03/11 03:51:37;;;;;;;19.00;8.10;;;;;;;12.91;68.59;99715.04;106473;1275;22534;-54
2023/03/11 03:54:27;;;;;;;14.70;6.80;;;;;;;12.89;68.60;99710.96;106835;1268;25342;-53
2023/03/11 03:56:57;;;;;;;20.70;7.80;;;;;;;12.87;68.67;99707.57;106801;1268;25342;-53
2023/03/11 03:59:27;;;;;;;21.00;7.70;;;;;;;12.85;68.78;99700.16;106966;1268;25373;-54
2023/03/11 04:01:58;;;;;;;14.00;7.10;;;;;;;12.84;68.78;99701.41;106843;1268;25527;-53
2023/03/11 04:04:28;;;;;;;23.30;8.10;;;;;;;12.84;68.67;99692.39;106689;1274;22624;-53
2023/03/11 04:06:56;;;;;;;22.30;7.90;;;;;;;12.83;68.65;99695.39;106854;1268;25435;-54
2023/03/11 04:09:28;;;;;;;18.20;7.50;;;;;;;12.81;68.57;99689.21;106792;1268;25370;-54
2023/03/11 04:11:58;;;;;;;21.70;8.80;;;;;;;12.81;68.57;99684.01;106785;1268;24467;-53
2023/03/11 04:14:28;;;;;;;18.40;7.70;;;;;;;12.80;68.48;99681.06;106857;1268;23888;-53
2023/03/11 04:17:03;;;;;;;16.20;6.70;;;;;;;12.80;68.43;99682.83;106797;1269;25533;-53
2023/03/11 04:19:33;;;;;;;17.80;8.10;;;;;;;12.77;68.54;99677.92;106818;1269;25349;-53
2023/03/11 04:22:01;;;;;;;29.50;7.60;;;;;;;12.78;68.45;99677.55;106866;1269;25438;-55
2023/03/11 04:24:31;;;;;;;20.50;7.90;;;;;;;12.78;68.50;99671.44;107014;1272;25482;-53
2023/03/11 04:27:00;;;;;;;19.10;7.60;;;;;;;12.76;68.44;99668.05;106882;1268;25436;-53
2023/03/11 04:29:28;;;;;;;19.20;7.30;;;;;;;12.74;68.45;99667.79;106831;1269;25317;-53
2023/03/11 04:31:57;;;;;;;19.10;7.10;;;;;;;12.74;68.42;99664.33;106708;1277;25360;-53
2023/03/11 04:34:34;;;;;;;20.40;7.70;;;;;;;12.74;68.37;99659.77;106848;1268;25345;-52
2023/03/11 04:37:04;;;;;;;17.70;7.60;;;;;;;12.75;68.45;99660.81;106777;1268;22648;-53
2023/03/11 04:39:34;;;;;;;19.80;8.30;;;;;;;12.73;68.48;99663.66;106869;1268;25383;-54
2023/03/11 04:42:04;;;;;;;20.30;7.60;;;;;;;12.70;68.61;99657.70;106874;1268;25527;-53
2023/03/11 04:44:34;;;;;;;18.80;7.00;;;;;;;12.75;68.48;99659.59;106873;1270;24202;-54
2023/03/11 04:47:06;;;;;;;20.70;7.90;;;;;;;12.69;68.73;99654.98;106469;1270;25389;-53
2023/03/11 04:49:35;;;;;;;20.90;7.70;;;;;;;12.72;68.71;99653.30;106855;1270;25327;-53
2023/03/11 04:52:04;;;;;;;21.50;8.20;;;;;;;12.77;68.54;99651.30;106369;1270;25349;-54
2023/03/11 04:54:32;;;;;;;17.30;7.10;;;;;;;12.79;68.49;99647.20;106310;1275;25305;-53
2023/03/11 04:57:01;;;;;;;20.00;8.20;;;;;;;12.80;68.45;99648.53;106224;1274;22545;-53
2023/03/11 04:59:29;;;;;;;19.40;8.40;;;;;;;12.81;68.52;99645.34;106537;1274;25528;-53
2023/03/11 05:01:59;;;;;;;22.50;8.20;;;;;;;12.82;68.40;99643.36;106583;1274;25377;-53
2023/03/11 05:04:28;;;;;;;14.00;7.60;;;;;;;12.83;68.51;99642.47;106380;1274;23043;-53
2023/03/11 05:06:58;;;;;;;15.70;7.40;;;;;;;12.86;68.56;99638.69;106368;1274;25368;-53
2023/03/11 05:09:27;;;;;;;22.60;8.10;;;;;;;12.87;68.48;99627.28;106389;1276;22699;-54
2023/03/11 05:11:55;;;;;;;21.00;8.50;;;;;;;12.90;68.51;99622.65;106379;1276;25471;-53
2023/03/11 05:14:25;;;;;;;22.20;9.90;;;;;;;12.92;68.53;99621.64;106074;1274;25400;-53
2023/03/11 05:16:55;;;;;;;24.60;8.60;;;;;;;12.95;68.52;99618.19;106288;1271;23898;-53
2023/03/11 05:19:31;;;;;;;18.70;7.60;;;;;;;12.89;68.84;99614.48;106514;1272;23916;-53
2023/03/11 05:22:02;;;;;;;16.90;7.20;;;;;;;12.88;68.89;99610.38;106640;1277;25355;-53
2023/03/11 05:24:31;;;;;;;23.60;9.50;;;;;;;12.90;68.80;99610.65;106738;1271;23911;-53
2023/03/11 05:27:04;;;;;;;16.00;7.60;;;;;;;12.92;68.75;99614.71;106744;1268;25352;-53
2023/03/11 05:29:35;;;;;;;19.40;8.50;;;;;;;12.93;68.71;99614.66;106817;1268;25374;-54
2023/03/11 05:32:04;;;;;;;21.00;7.80;;;;;;;12.94;68.72;99616.36;106533;1276;23978;-53
2023/03/11 05:34:33;;;;;;;15.80;7.40;;;;;;;12.95;68.58;99618.36;106919;1268;22628;-53
2023/03/11 05:37:01;;;;;;;20.30;9.00;;;;;;;12.96;68.51;99625.12;106906;1268;25358;-53
2023/03/11 05:39:36;;;;;;;19.10;7.90;;;;;;;12.96;68.41;99622.65;106822;1271;25351;-53
2023/03/11 05:42:06;;;;;;;22.00;8.10;;;;;;;12.98;68.38;99625.38;106726;1269;25241;-53
2023/03/11 05:44:35;;;;;;;21.10;8.00;;;;;;;12.98;68.27;99622.23;106895;1268;25387;-53
2023/03/11 05:47:04;;;;;;;26.30;9.00;;;;;;;12.98;68.23;99618.89;106879;1269;25373;-53
2023/03/11 05:49:33;;;;;;;15.90;7.90;;;;;;;12.99;68.31;99616.76;106887;1268;25360;-53
2023/03/11 05:52:02;;;;;;;21.20;8.90;;;;;;;13.02;68.29;99619.23;106814;1273;22514;-53
2023/03/11 05:54:31;;;;;;;17.50;8.10;;;;;;;13.04;68.17;99615.33;106865;1268;22518;-53
2023/03/11 05:57:04;;;;;;;20.80;9.00;;;;;;;13.07;68.09;99615.89;106875;1268;25349;-54
2023/03/11 05:59:34;;;;;;;27.40;10.00;;;;;;;13.10;68.14;99613.00;106926;1268;22528;-52
2023/03/11 06:02:04;;;;;;;19.80;8.80;;;;;;;13.13;68.12;99611.61;106848;1268;24287;-53
2023/03/11 06:04:34;;;;;;;28.50;10.40;;;;;;;13.16;68.18;99606.94;106830;1269;25394;-53
2023/03/11 06:07:03;;;;;;;23.20;10.20;;;;;;;13.23;68.50;99606.77;106759;1271;25435;-53
2023/03/11 06:09:35;;;;;;;20.10;9.50;;;;;;;13.38;68.61;99612.44;106742;1268;26654;-53
2023/03/11 06:12:06;;;;;;;25.30;9.30;;;;;;;13.54;67.98;99603.39;106707;1253;24272;-52
2023/03/11 06:14:58;;;;;;;20.80;9.50;;;;;;;13.68;67.40;99601.95;106642;1269;25804;-52
2023/03/11 06:17:27;;;;;;;22.50;9.40;;;;;;;13.77;67.13;99598.84;106764;1271;25358;-51
2023/03/11 06:19:59;;;;;;;;;;;;;;;13.86;67.16;99601.69;106867;1268;25351;-51
2023/03/11 06:22:28;;;;;;;27.90;10.30;;;;;;;13.97;66.88;99609.77;106909;1269;26606;-51
2023/03/11 06:24:56;;;;;;;18.90;9.50;;;;;;;14.13;66.47;99608.60;106885;1268;25555;-51
2023/03/11 06:27:25;;;;;;;20.80;8.80;;;;;;;14.32;65.90;99608.21;106766;1269;25411;-51
2023/03/11 06:29:54;;;;;;;22.20;9.10;;;;;;;14.54;65.15;99614.36;106905;1257;25364;-51
2023/03/11 06:32:28;;;;;;;20.80;9.90;;;;;;;14.77;64.56;99610.96;106876;1268;25481;-50
2023/03/11 06:34:57;;;;;;;24.80;8.90;;;;;;;15.03;63.78;99604.05;106812;1272;24430;-50
2023/03/11 06:37:25;;;;;;;24.30;9.10;;;;;;;15.28;62.96;99602.34;106754;1271;22530;-50
2023/03/11 06:39:56;;;;;;;18.30;8.70;;;;;;;15.51;62.03;99596.46;106812;1272;25412;-51
2023/03/11 06:42:25;;;;;;;19.80;8.30;;;;;;;15.68;61.54;99594.18;106901;1268;22635;-52
2023/03/11 06:45:05;;;;;;;23.90;9.00;;;;;;;15.89;60.78;99586.09;106916;1268;25374;-52
2023/03/11 06:47:34;;;;;;;16.00;7.20;;;;;;;16.08;59.88;99580.67;106935;1268;25345;-51
2023/03/11 06:50:06;;;;;;;24.90;7.90;;;;;;;16.23;59.22;99580.23;106835;1270;25376;-51
2023/03/11 06:52:35;;;;;;;23.90;9.30;;;;;;;16.37;58.44;99580.61;106875;1272;24229;-51
2023/03/11 06:55:06;;;;;;;23.00;7.70;;;;;;;16.44;58.12;99579.98;106836;1268;22541;-51
2023/03/11 06:57:36;;;;;;;19.00;8.10;;;;;;;16.51;57.76;99577.77;106839;1272;25374;-51
2023/03/11 07:00:11;;;;;;;22.80;8.60;;;;;;;16.61;57.33;99578.50;106963;1268;22737;-51
2023/03/11 07:02:44;;;;;;;17.50;7.50;;;;;;;16.71;56.93;99571.58;106553;1272;25553;-50
2023/03/11 07:05:13;;;;;;;18.50;8.60;;;;;;;16.78;56.52;99569.67;106843;1268;24427;-51
2023/03/11 07:07:41;;;;;;;18.10;8.00;;;;;;;16.82;56.16;99571.01;106976;1269;24196;-51
2023/03/11 07:10:10;;;;;;;20.40;7.80;;;;;;;16.81;56.00;99568.05;106832;1268;25370;-51
2023/03/11 07:12:39;;;;;;;19.40;7.90;;;;;;;16.81;55.73;99568.98;106826;1269;24314;-51
2023/03/11 07:15:08;;;;;;;16.90;8.40;;;;;;;16.79;55.65;99565.08;106728;1269;222935;-52
2023/03/11 07:17:38;;;;;;;18.60;7.90;;;;;;;16.77;55.56;99562.23;106911;1268;22663;-51
2023/03/11 07:20:08;;;;;;;15.30;7.90;;;;;;;16.71;55.51;99559.45;106948;1268;24347;-51
2023/03/11 07:22:36;;;;;;;22.00;7.20;;;;;;;16.63;55.53;99555.84;106847;1269;22546;-52
2023/03/11 07:25:05;;;;;;;23.20;8.00;;;;;;;16.49;55.72;99547.96;106901;1269;22527;-51
2023/03/11 07:27:34;;;;;;;15.90;6.90;;;;;;;16.35;55.98;99546.23;106782;1271;24230;-51
2023/03/11 07:30:07;;;;;;;18.40;8.00;;;;;;;16.19;56.31;99547.75;106718;1269;22647;-51
2023/03/11 07:32:37;;;;;;;18.60;8.10;;;;;;;16.06;56.56;99537.73;106999;1268;25532;-51
2023/03/11 07:35:06;;;;;;;17.10;8.80;;;;;;;15.93;56.93;99537.73;106883;1268;25552;-51
2023/03/11 07:37:36;;;;;;;21.10;7.70;;;;;;;15.80;57.19;99536.95;106815;1269;26507;-51
2023/03/11 07:40:05;;;;;;;19.50;7.90;;;;;;;15.69;57.59;99533.12;106772;1269;25406;-51
2023/03/11 07:42:34;;;;;;;15.90;6.90;;;;;;;15.58;57.88;99527.52;106900;1268;22657;-50
2023/03/11 07:45:03;;;;;;;15.20;6.80;;;;;;;15.47;58.28;99533.08;107002;1268;25466;-51
2023/03/11 07:47:32;;;;;;;23.60;8.00;;;;;;;15.40;58.67;99529.66;106915;1268;24769;-50
2023/03/11 07:50:00;;;;;;;19.00;7.10;;;;;;;15.34;59.03;99528.23;106932;1268;25419;-51
2023/03/11 07:52:30;;;;;;;21.50;7.50;;;;;;;15.33;59.14;99525.88;106803;1271;25345;-51
2023/03/11 07:54:59;;;;;;;21.90;7.90;;;;;;;15.32;59.34;99517.73;106748;1269;22649;-51
2023/03/11 07:57:27;;;;;;;20.00;7.50;;;;;;;15.31;59.46;99515.17;106871;1268;25340;-50
2023/03/11 07:59:56;;;;;;;24.80;8.60;;;;;;;15.31;59.64;99511.31;106642;1271;25376;-50
2023/03/11 08:02:24;;;;;;;19.60;8.20;;;;;;;15.33;59.64;99505.95;106916;1268;24209;-51
2023/03/11 08:04:54;;;;;;;18.00;7.50;;;;;;;15.35;59.65;99503.19;106881;1273;25370;-50
2023/03/11 08:07:23;;;;;;;19.40;7.40;;;;;;;15.38;59.61;99502.34;106964;1269;22554;-51
2023/03/11 08:09:52;;;;;;;19.70;7.60;;;;;;;15.39;59.53;99496.12;106725;1269;24218;-50
2023/03/11 08:12:25;;;;;;;17.00;7.40;;;;;;;15.40;59.59;99496.40;106840;1273;25581;-51
2023/03/11 08:14:53;;;;;;;20.40;7.40;;;;;;;15.42;59.52;99493.38;106806;1269;25330;-50
2023/03/11 08:17:21;;;;;;;19.70;7.90;;;;;;;15.42;59.51;99490.38;106557;1274;25334;-51
2023/03/11 08:19:50;;;;;;;18.40;6.90;;;;;;;15.42;59.47;99487.06;106946;1268;25364;-51
2023/03/11 08:22:20;;;;;;;20.20;7.90;;;;;;;15.43;59.62;99482.99;107043;1268;25367;-51
2023/03/11 08:24:51;;;;;;;20.30;7.20;;;;;;;15.45;59.49;99480.42;106893;1269;24449;-51
2023/03/11 08:27:19;;;;;;;26.20;7.90;;;;;;;15.47;59.54;99478.23;106791;1273;22748;-50
2023/03/11 08:29:48;;;;;;;22.40;6.80;;;;;;;15.49;59.55;99470.41;106946;1269;22529;-51
2023/03/11 08:32:16;;;;;;;19.90;7.40;;;;;;;15.52;59.54;99471.27;106729;1274;25345;-51
2023/03/11 08:34:45;;;;;;;18.00;7.40;;;;;;;15.55;59.45;99467.94;106953;1268;25425;-50
2023/03/11 08:37:14;;;;;;;22.20;7.50;;;;;;;15.57;59.36;99467.63;107047;1268;25422;-50
2023/03/11 08:39:43;;;;;;;15.30;6.20;;;;;;;15.59;59.25;99466.81;106922;1268;23869;-50
2023/03/11 08:42:15;;;;;;;18.90;7.40;;;;;;;15.61;59.25;99460.23;106999;1268;25363;-50
2023/03/11 08:44:44;;;;;;;20.90;7.40;;;;;;;15.64;59.29;99454.79;106831;1269;22735;-50
2023/03/11 08:47:13;;;;;;;20.50;7.20;;;;;;;15.65;59.17;99446.63;106776;1274;25422;-50
2023/03/11 08:49:42;;;;;;;19.10;6.90;;;;;;;15.69;59.16;99446.43;106974;1269;25402;-50
2023/03/11 08:52:10;;;;;;;20.70;6.80;;;;;;;15.71;59.04;99446.96;106931;1253;25533;-51
2023/03/11 08:54:41;;;;;;;14.60;5.80;;;;;;;15.70;59.04;99443.04;106978;1275;22531;-50
2023/03/11 08:57:10;;;;;;;17.60;5.80;;;;;;;15.68;59.02;99436.34;106782;1269;22639;-50
2023/03/11 08:59:39;;;;;;;17.80;6.00;;;;;;;15.67;59.00;99437.44;106889;1268;25357;-50
2023/03/11 09:02:09;;;;;;;17.90;6.30;;;;;;;15.66;58.91;99433.65;106893;1268;22553;-50
2023/03/11 09:04:38;;;;;;;17.50;6.10;;;;;;;15.63;58.78;99432.11;106893;1268;25333;-51
2023/03/11 09:07:12;;;;;;;18.70;7.20;;;;;;;15.58;58.74;99428.06;106757;1268;25371;-50
2023/03/11 09:09:42;;;;;;;19.00;6.70;;;;;;;15.52;58.96;99431.05;106825;1269;24222;-51
2023/03/11 09:12:12;;;;;;;19.00;6.10;;;;;;;15.48;59.07;99432.54;106730;1273;22660;-50
2023/03/11 09:14:42;;;;;;;17.90;6.30;;;;;;;15.46;59.19;99427.25;106959;1268;22764;-50
2023/03/11 09:17:11;;;;;;;17.60;6.10;;;;;;;15.43;59.25;99431.45;106733;1268;25370;-50
2023/03/11 09:19:39;;;;;;;23.80;7.20;;;;;;;15.40;59.40;99431.10;107014;1269;25334;-51
2023/03/11 09:22:08;;;;;;;17.40;6.10;;;;;;;15.38;59.37;99432.81;106265;1277;22645;-50
2023/03/11 09:24:36;;;;;;;15.70;5.70;;;;;;;15.36;59.52;99433.80;106854;1268;25379;-50
2023/03/11 09:27:05;;;;;;;18.70;6.60;;;;;;;15.35;59.50;99434.41;106777;1272;22525;-50
2023/03/11 09:29:34;;;;;;;15.40;6.00;;;;;;;15.34;59.57;99433.73;106611;1269;25335;-50
2023/03/11 09:32:04;;;;;;;19.60;6.10;;;;;;;15.34;59.54;99428.63;107268;1269;26618;-50
2023/03/11 09:34:33;;;;;;;20.00;6.50;;;;;;;15.37;59.58;99426.58;107078;1261;22798;-52
2023/03/11 09:37:02;;;;;;;18.00;6.40;;;;;;;15.36;59.50;99425.55;107026;1268;25335;-51
2023/03/11 09:39:31;;;;;;;17.90;6.40;;;;;;;15.34;59.56;99422.87;107061;1263;25348;-52
2023/03/11 09:42:09;;;;;;;18.70;6.20;;;;;;;15.32;59.62;99419.40;106917;1268;25374;-51
2023/03/11 09:45:03;;;;;;;15.10;5.80;;;;;;;15.27;59.71;99417.80;106993;1269;25353;-51
2023/03/11 09:47:47;;;;;;;14.40;5.70;;;;;;;15.21;59.82;99415.69;106896;1269;25437;-51
2023/03/11 09:50:21;;;;;;;22.50;6.30;;;;;;;15.14;59.99;99416.98;106905;1268;22525;-51
2023/03/11 09:53:01;;;;;;;31.70;8.00;;;;;;;15.07;60.27;99412.71;107137;1269;23875;-51
2023/03/11 09:55:33;;;;;;;17.10;6.30;;;;;;;15.04;60.43;99413.24;106751;1276;25342;-51
2023/03/11 09:58:14;;;;;;;15.90;5.90;;;;;;;15.00;60.52;99407.77;106937;1275;26646;-51
2023/03/11 10:00:43;;;;;;;24.10;6.90;;;;;;;14.95;60.79;99405.25;106887;1268;24279;-51
2023/03/11 10:03:32;;;;;;;19.90;6.70;;;;;;;14.93;60.93;99406.61;106855;1274;25486;-52
2023/03/11 10:06:05;;;;;;;22.30;6.50;;;;;;;14.91;60.93;99402.69;106933;1276;22520;-52
2023/03/11 10:08:38;;;;;;;19.60;6.80;;;;;;;14.91;60.90;99402.40;107179;1265;22534;-51
2023/03/11 10:11:25;;;;;;;24.80;7.10;;;;;;;14.87;60.85;99399.99;106935;1276;25493;-52
2023/03/11 10:14:27;;;;;;;19.10;6.40;;;;;;;14.82;60.88;99402.41;106704;1277;25377;-52
2023/03/11 10:17:12;;;;;;;21.30;6.60;;;;;;;14.74;60.94;99400.27;106978;1263;25422;-52
2023/03/11 10:19:43;;;;;;;18.20;6.40;;;;;;;14.66;61.10;99392.48;107121;1269;22528;-51
2023/03/11 10:22:42;;;;;;;19.50;6.20;;;;;;;14.60;61.19;99390.78;107102;1265;23860;-51
2023/03/11 10:25:17;;;;;;;22.00;6.50;;;;;;;14.53;61.45;99390.48;107327;1268;25339;-52
2023/03/11 10:27:57;;;;;;;17.10;6.00;;;;;;;14.50;61.66;99381.29;105698;1270;1003703;-52
2023/03/11 10:30:42;;;;;;;25.10;7.90;;;;;;;14.49;61.85;99372.08;107071;1269;25552;-53
2023/03/11 10:33:21;;;;;;;22.60;7.50;;;;;;;14.50;61.97;99367.50;106743;1274;25386;-52
2023/03/11 10:35:52;;;;;;;17.40;6.70;;;;;;;14.52;62.12;99360.89;106869;1276;25346;-53
2023/03/11 10:38:21;;;;;;;24.90;7.30;;;;;;;14.56;62.07;99357.85;106885;1269;24317;-52
2023/03/11 10:40:52;;;;;;;22.20;8.00;;;;;;;14.61;61.98;99353.20;107103;1268;22531;-53
2023/03/11 10:43:31;;;;;;;19.30;6.70;;;;;;;14.65;61.80;99351.53;106873;1269;24248;-52
2023/03/11 10:46:11;;;;;;;17.40;7.20;;;;;;;14.69;61.61;99352.02;106945;1268;25353;-52
2023/03/11 10:48:39;;;;;;;26.10;7.80;;;;;;;14.70;61.50;99343.23;107030;1271;25290;-52
2023/03/11 10:51:13;;;;;;;18.40;6.30;;;;;;;14.69;61.43;99342.22;107033;1269;25342;-52
2023/03/11 10:53:48;;;;;;;18.60;6.80;;;;;;;14.68;61.41;99336.90;106849;1270;25345;-52
2023/03/11 10:56:24;;;;;;;18.10;8.30;;;;;;;14.68;61.46;99336.02;106795;1274;25346;-52
2023/03/11 10:58:54;;;;;;;24.70;8.00;;;;;;;14.66;61.51;99332.82;107018;1268;25270;-52
2023/03/11 11:01:23;;;;;;;22.30;7.90;;;;;;;14.65;61.52;99326.07;106772;1269;25462;-52
2023/03/11 11:03:54;;;;;;;21.20;6.80;;;;;;;14.65;61.55;99326.26;107034;1269;26463;-52
2023/03/11 11:06:29;;;;;;;20.90;7.10;;;;;;;14.65;61.64;99325.04;106988;1269;25620;-52
2023/03/11 11:09:05;;;;;;;22.00;6.80;;;;;;;14.63;61.74;99316.42;106844;1269;24217;-52
2023/03/11 11:11:38;;;;;;;21.40;7.90;;;;;;;14.61;61.90;99313.23;106919;1269;25519;-52
2023/03/11 11:14:09;;;;;;;19.40;6.70;;;;;;;14.58;62.06;99309.06;106794;1269;23301;-52
2023/03/11 11:16:37;;;;;;;33.90;7.00;;;;;;;14.55;62.31;99305.75;106870;1273;25342;-52
2023/03/11 11:19:11;;;;;;;14.50;6.60;;;;;;;14.53;62.47;99303.77;106852;1269;24208;-52
2023/03/11 11:21:42;;;;;;;23.60;8.30;;;;;;;14.52;62.77;99297.03;106991;1269;25334;-52
2023/03/11 11:24:24;;;;;;;16.40;6.70;;;;;;;14.51;62.77;99293.94;106934;1269;22746;-52
2023/03/11 11:27:14;;;;;;;30.00;8.20;;;;;;;14.51;62.91;99288.20;106952;1269;24192;-53
2023/03/11 11:29:43;;;;;;;15.40;7.10;;;;;;;14.50;62.93;99278.84;106453;1275;25367;-52
2023/03/11 11:32:18;;;;;;;21.40;7.50;;;;;;;14.50;62.88;99265.04;106824;1274;26498;-52
2023/03/11 11:35:00;;;;;;;16.90;7.20;;;;;;;14.51;62.92;99255.59;106937;1269;25349;-51
2023/03/11 11:37:33;;;;;;;21.80;8.30;;;;;;;14.51;62.86;99251.39;106973;1269;25537;-52